sensor_id;sensor_type;location;lat;lon;timestamp;P1;durP1;ratioP1;P2;durP2;ratioP2
50769;SDS011;36740;48.698;11.472;2023-04-03T00:01:37;4.43;;;2.72;;
50769;SDS011;36740;48.698;11.472;2023-04-03T00:04:23;3.28;;;1.90;;
50769;SDS011;36740;48.698;11.472;2023-04-03T00:07:09;2.78;;;2.13;;
50769;SDS011;36740;48.698;11.472;2023-04-03T00:09:54;3.97;;;2.45;;
50769;SDS011;36740;48.698;11.472;2023-04-03T00:12:40;2.95;;;1.95;;
50769;SDS011;36740;48.698;11.472;2023-04-03T00:15:26;3.00;;;2.47;;
50769;SDS011;36740;48.698;11.472;2023-04-03T00:18:11;3.13;;;2.38;;
50769;SDS011;36740;48.698;11.472;2023-04-03T00:20:57;6.85;;;2.47;;
50769;SDS011;36740;48.698;11.472;2023-04-03T00:23:43;2.58;;;1.73;;
50769;SDS011;36740;48.698;11.472;2023-04-03T00:26:28;2.88;;;1.90;;
50769;SDS011;36740;48.698;11.472;2023-04-03T00:29:14;6.10;;;2.58;;
50769;SDS011;36740;48.698;11.472;2023-04-03T00:32:00;3.17;;;1.95;;
50769;SDS011;36740;48.698;11.472;2023-04-03T00:34:45;2.50;;;2.22;;
50769;SDS011;36740;48.698;11.472;2023-04-03T00:37:31;6.40;;;2.83;;
50769;SDS011;36740;48.698;11.472;2023-04-03T00:40:17;4.30;;;3.20;;
50769;SDS011;36740;48.698;11.472;2023-04-03T00:43:08;6.80;;;3.25;;
50769;SDS011;36740;48.698;11.472;2023-04-03T00:45:56;4.40;;;2.85;;
50769;SDS011;36740;48.698;11.472;2023-04-03T00:48:43;3.25;;;2.38;;
50769;SDS011;36740;48.698;11.472;2023-04-03T00:51:30;2.72;;;2.50;;
50769;SDS011;36740;48.698;11.472;2023-04-03T00:54:15;3.85;;;3.00;;
50769;SDS011;36740;48.698;11.472;2023-04-03T00:57:01;5.85;;;2.83;;
50769;SDS011;36740;48.698;11.472;2023-04-03T00:59:49;5.82;;;3.45;;
50769;SDS011;36740;48.698;11.472;2023-04-03T01:02:36;5.03;;;2.92;;
50769;SDS011;36740;48.698;11.472;2023-04-03T01:05:22;3.35;;;2.85;;
50769;SDS011;36740;48.698;11.472;2023-04-03T01:08:08;4.47;;;2.80;;
50769;SDS011;36740;48.698;11.472;2023-04-03T01:10:53;3.20;;;2.47;;
50769;SDS011;36740;48.698;11.472;2023-04-03T01:13:39;4.35;;;3.20;;
50769;SDS011;36740;48.698;11.472;2023-04-03T01:16:26;2.78;;;2.25;;
50769;SDS011;36740;48.698;11.472;2023-04-03T01:19:13;3.55;;;2.80;;
50769;SDS011;36740;48.698;11.472;2023-04-03T01:22:13;4.68;;;3.60;;
50769;SDS011;36740;48.698;11.472;2023-04-03T01:25:03;5.20;;;2.85;;
50769;SDS011;36740;48.698;11.472;2023-04-03T01:27:49;3.83;;;2.67;;
50769;SDS011;36740;48.698;11.472;2023-04-03T01:30:36;5.80;;;2.95;;
50769;SDS011;36740;48.698;11.472;2023-04-03T01:33:25;3.35;;;2.28;;
50769;SDS011;36740;48.698;11.472;2023-04-03T01:36:13;2.92;;;2.50;;
50769;SDS011;36740;48.698;11.472;2023-04-03T01:38:59;4.28;;;3.17;;
50769;SDS011;36740;48.698;11.472;2023-04-03T01:41:45;13.13;;;2.65;;
50769;SDS011;36740;48.698;11.472;2023-04-03T01:44:31;6.22;;;3.22;;
50769;SDS011;36740;48.698;11.472;2023-04-03T01:47:16;8.68;;;3.80;;
50769;SDS011;36740;48.698;11.472;2023-04-03T01:50:02;5.18;;;2.92;;
50769;SDS011;36740;48.698;11.472;2023-04-03T01:52:48;2.95;;;2.03;;
50769;SDS011;36740;48.698;11.472;2023-04-03T01:55:33;4.88;;;2.45;;
50769;SDS011;36740;48.698;11.472;2023-04-03T01:58:19;2.58;;;2.38;;
50769;SDS011;36740;48.698;11.472;2023-04-03T02:01:04;3.45;;;2.40;;
50769;SDS011;36740;48.698;11.472;2023-04-03T02:03:50;2.90;;;2.17;;
50769;SDS011;36740;48.698;11.472;2023-04-03T02:06:36;6.32;;;3.40;;
50769;SDS011;36740;48.698;11.472;2023-04-03T02:09:21;7.75;;;3.60;;
50769;SDS011;36740;48.698;11.472;2023-04-03T02:12:07;4.93;;;3.50;;
50769;SDS011;36740;48.698;11.472;2023-04-03T02:14:53;3.55;;;2.63;;
50769;SDS011;36740;48.698;11.472;2023-04-03T02:17:38;5.18;;;2.80;;
50769;SDS011;36740;48.698;11.472;2023-04-03T02:20:24;4.93;;;3.30;;
50769;SDS011;36740;48.698;11.472;2023-04-03T02:23:09;11.32;;;3.67;;
50769;SDS011;36740;48.698;11.472;2023-04-03T02:29:11;3.72;;;3.17;;
50769;SDS011;36740;48.698;11.472;2023-04-03T02:31:56;3.28;;;2.80;;
50769;SDS011;36740;48.698;11.472;2023-04-03T02:34:42;5.57;;;2.80;;
50769;SDS011;36740;48.698;11.472;2023-04-03T02:37:27;4.57;;;4.03;;
50769;SDS011;36740;48.698;11.472;2023-04-03T02:40:13;5.32;;;3.45;;
50769;SDS011;36740;48.698;11.472;2023-04-03T02:42:58;4.03;;;3.15;;
50769;SDS011;36740;48.698;11.472;2023-04-03T02:45:44;4.05;;;2.97;;
50769;SDS011;36740;48.698;11.472;2023-04-03T02:48:30;7.68;;;2.85;;
50769;SDS011;36740;48.698;11.472;2023-04-03T02:51:15;6.95;;;2.95;;
50769;SDS011;36740;48.698;11.472;2023-04-03T02:54:03;3.13;;;2.85;;
50769;SDS011;36740;48.698;11.472;2023-04-03T02:56:48;9.40;;;3.75;;
50769;SDS011;36740;48.698;11.472;2023-04-03T02:59:37;3.70;;;2.63;;
50769;SDS011;36740;48.698;11.472;2023-04-03T03:02:26;5.00;;;2.70;;
50769;SDS011;36740;48.698;11.472;2023-04-03T03:05:11;6.13;;;3.00;;
50769;SDS011;36740;48.698;11.472;2023-04-03T03:07:57;4.32;;;2.95;;
50769;SDS011;36740;48.698;11.472;2023-04-03T03:10:42;5.05;;;3.17;;
50769;SDS011;36740;48.698;11.472;2023-04-03T03:13:29;3.30;;;2.10;;
50769;SDS011;36740;48.698;11.472;2023-04-03T03:16:15;3.22;;;2.55;;
50769;SDS011;36740;48.698;11.472;2023-04-03T03:19:01;3.63;;;2.90;;
50769;SDS011;36740;48.698;11.472;2023-04-03T03:21:46;5.60;;;2.60;;
50769;SDS011;36740;48.698;11.472;2023-04-03T03:24:32;1.95;;;1.75;;
50769;SDS011;36740;48.698;11.472;2023-04-03T03:27:19;3.00;;;2.78;;
50769;SDS011;36740;48.698;11.472;2023-04-03T03:30:05;4.25;;;2.88;;
50769;SDS011;36740;48.698;11.472;2023-04-03T03:32:51;3.55;;;2.80;;
50769;SDS011;36740;48.698;11.472;2023-04-03T03:35:36;3.90;;;2.50;;
50769;SDS011;36740;48.698;11.472;2023-04-03T03:38:22;5.15;;;2.97;;
50769;SDS011;36740;48.698;11.472;2023-04-03T03:41:08;3.88;;;2.40;;
50769;SDS011;36740;48.698;11.472;2023-04-03T03:43:54;3.30;;;2.70;;
50769;SDS011;36740;48.698;11.472;2023-04-03T03:46:39;4.97;;;4.03;;
50769;SDS011;36740;48.698;11.472;2023-04-03T03:49:25;5.72;;;3.67;;
50769;SDS011;36740;48.698;11.472;2023-04-03T03:52:10;4.10;;;2.58;;
50769;SDS011;36740;48.698;11.472;2023-04-03T03:54:56;3.63;;;3.28;;
50769;SDS011;36740;48.698;11.472;2023-04-03T03:57:42;3.88;;;3.22;;
50769;SDS011;36740;48.698;11.472;2023-04-03T04:00:27;4.38;;;3.47;;
50769;SDS011;36740;48.698;11.472;2023-04-03T04:03:13;5.05;;;3.17;;
50769;SDS011;36740;48.698;11.472;2023-04-03T04:05:58;3.70;;;2.83;;
50769;SDS011;36740;48.698;11.472;2023-04-03T04:08:44;8.25;;;3.45;;
50769;SDS011;36740;48.698;11.472;2023-04-03T04:11:30;3.60;;;3.22;;
50769;SDS011;36740;48.698;11.472;2023-04-03T04:14:15;8.27;;;2.90;;
50769;SDS011;36740;48.698;11.472;2023-04-03T04:17:01;3.78;;;2.47;;
50769;SDS011;36740;48.698;11.472;2023-04-03T04:19:47;7.30;;;3.75;;
50769;SDS011;36740;48.698;11.472;2023-04-03T04:22:33;8.68;;;4.50;;
50769;SDS011;36740;48.698;11.472;2023-04-03T04:25:18;5.60;;;4.45;;
50769;SDS011;36740;48.698;11.472;2023-04-03T04:28:04;3.20;;;2.17;;
50769;SDS011;36740;48.698;11.472;2023-04-03T04:30:51;7.47;;;4.45;;
50769;SDS011;36740;48.698;11.472;2023-04-03T04:33:36;3.85;;;3.08;;
50769;SDS011;36740;48.698;11.472;2023-04-03T04:36:22;4.35;;;2.75;;
50769;SDS011;36740;48.698;11.472;2023-04-03T04:39:07;4.22;;;3.15;;
50769;SDS011;36740;48.698;11.472;2023-04-03T04:41:53;6.32;;;3.60;;
50769;SDS011;36740;48.698;11.472;2023-04-03T04:44:39;4.53;;;3.65;;
50769;SDS011;36740;48.698;11.472;2023-04-03T04:47:26;7.20;;;3.22;;
50769;SDS011;36740;48.698;11.472;2023-04-03T04:50:13;6.68;;;3.97;;
50769;SDS011;36740;48.698;11.472;2023-04-03T04:52:58;3.22;;;2.88;;
50769;SDS011;36740;48.698;11.472;2023-04-03T04:55:44;3.83;;;2.90;;
50769;SDS011;36740;48.698;11.472;2023-04-03T04:58:30;2.42;;;2.13;;
50769;SDS011;36740;48.698;11.472;2023-04-03T05:01:15;7.78;;;3.45;;
50769;SDS011;36740;48.698;11.472;2023-04-03T05:04:01;4.20;;;3.05;;
50769;SDS011;36740;48.698;11.472;2023-04-03T05:06:46;6.78;;;3.42;;
50769;SDS011;36740;48.698;11.472;2023-04-03T05:09:32;5.43;;;2.58;;
50769;SDS011;36740;48.698;11.472;2023-04-03T05:12:18;12.32;;;5.53;;
50769;SDS011;36740;48.698;11.472;2023-04-03T05:15:03;3.60;;;2.75;;
50769;SDS011;36740;48.698;11.472;2023-04-03T05:17:49;4.35;;;2.88;;
50769;SDS011;36740;48.698;11.472;2023-04-03T05:20:35;6.28;;;3.33;;
50769;SDS011;36740;48.698;11.472;2023-04-03T05:23:22;4.05;;;3.25;;
50769;SDS011;36740;48.698;11.472;2023-04-03T05:26:07;5.72;;;3.80;;
50769;SDS011;36740;48.698;11.472;2023-04-03T05:28:53;4.93;;;3.25;;
50769;SDS011;36740;48.698;11.472;2023-04-03T05:31:39;3.47;;;2.80;;
50769;SDS011;36740;48.698;11.472;2023-04-03T05:34:24;6.18;;;3.72;;
50769;SDS011;36740;48.698;11.472;2023-04-03T05:37:10;4.05;;;3.33;;
50769;SDS011;36740;48.698;11.472;2023-04-03T05:39:55;14.30;;;3.97;;
50769;SDS011;36740;48.698;11.472;2023-04-03T05:42:41;6.90;;;4.45;;
50769;SDS011;36740;48.698;11.472;2023-04-03T05:45:27;5.18;;;3.63;;
50769;SDS011;36740;48.698;11.472;2023-04-03T05:48:12;5.72;;;2.75;;
50769;SDS011;36740;48.698;11.472;2023-04-03T05:50:58;10.93;;;5.28;;
50769;SDS011;36740;48.698;11.472;2023-04-03T05:53:44;4.20;;;3.55;;
50769;SDS011;36740;48.698;11.472;2023-04-03T05:56:30;4.82;;;2.95;;
50769;SDS011;36740;48.698;11.472;2023-04-03T05:59:16;4.35;;;2.47;;
50769;SDS011;36740;48.698;11.472;2023-04-03T06:02:02;3.22;;;2.90;;
50769;SDS011;36740;48.698;11.472;2023-04-03T06:04:48;3.70;;;2.67;;
50769;SDS011;36740;48.698;11.472;2023-04-03T06:07:34;4.80;;;3.03;;
50769;SDS011;36740;48.698;11.472;2023-04-03T06:10:20;5.05;;;3.38;;
50769;SDS011;36740;48.698;11.472;2023-04-03T06:13:06;4.55;;;3.00;;
50769;SDS011;36740;48.698;11.472;2023-04-03T06:15:51;4.38;;;3.25;;
50769;SDS011;36740;48.698;11.472;2023-04-03T06:18:37;5.28;;;3.70;;
50769;SDS011;36740;48.698;11.472;2023-04-03T06:21:23;6.05;;;3.20;;
50769;SDS011;36740;48.698;11.472;2023-04-03T06:24:09;4.97;;;3.78;;
50769;SDS011;36740;48.698;11.472;2023-04-03T06:26:55;7.60;;;4.15;;
50769;SDS011;36740;48.698;11.472;2023-04-03T06:29:40;6.63;;;3.47;;
50769;SDS011;36740;48.698;11.472;2023-04-03T06:32:26;5.10;;;3.40;;
50769;SDS011;36740;48.698;11.472;2023-04-03T06:35:12;4.60;;;3.17;;
50769;SDS011;36740;48.698;11.472;2023-04-03T06:37:57;4.53;;;3.42;;
50769;SDS011;36740;48.698;11.472;2023-04-03T06:40:43;4.75;;;2.53;;
50769;SDS011;36740;48.698;11.472;2023-04-03T06:43:29;6.82;;;3.38;;
50769;SDS011;36740;48.698;11.472;2023-04-03T06:46:17;7.97;;;3.90;;
50769;SDS011;36740;48.698;11.472;2023-04-03T06:49:03;7.45;;;4.60;;
50769;SDS011;36740;48.698;11.472;2023-04-03T06:51:49;3.42;;;2.75;;
50769;SDS011;36740;48.698;11.472;2023-04-03T06:54:35;9.98;;;4.50;;
50769;SDS011;36740;48.698;11.472;2023-04-03T06:57:21;6.38;;;3.20;;
50769;SDS011;36740;48.698;11.472;2023-04-03T07:00:06;5.90;;;4.53;;
50769;SDS011;36740;48.698;11.472;2023-04-03T07:02:52;7.97;;;3.45;;
50769;SDS011;36740;48.698;11.472;2023-04-03T07:05:38;5.22;;;4.03;;
50769;SDS011;36740;48.698;11.472;2023-04-03T07:08:23;5.78;;;2.83;;
50769;SDS011;36740;48.698;11.472;2023-04-03T07:11:11;6.88;;;3.88;;
50769;SDS011;36740;48.698;11.472;2023-04-03T07:13:57;8.25;;;5.03;;
50769;SDS011;36740;48.698;11.472;2023-04-03T07:16:43;5.35;;;3.40;;
50769;SDS011;36740;48.698;11.472;2023-04-03T07:19:28;8.10;;;4.22;;
50769;SDS011;36740;48.698;11.472;2023-04-03T07:22:14;5.20;;;3.65;;
50769;SDS011;36740;48.698;11.472;2023-04-03T07:24:59;9.30;;;4.63;;
50769;SDS011;36740;48.698;11.472;2023-04-03T07:27:45;7.28;;;3.72;;
50769;SDS011;36740;48.698;11.472;2023-04-03T07:30:30;12.98;;;3.75;;
50769;SDS011;36740;48.698;11.472;2023-04-03T07:33:17;14.52;;;4.45;;
50769;SDS011;36740;48.698;11.472;2023-04-03T07:36:03;5.80;;;3.75;;
50769;SDS011;36740;48.698;11.472;2023-04-03T07:38:49;6.25;;;3.85;;
50769;SDS011;36740;48.698;11.472;2023-04-03T07:41:34;7.53;;;4.00;;
50769;SDS011;36740;48.698;11.472;2023-04-03T07:44:20;6.70;;;3.95;;
50769;SDS011;36740;48.698;11.472;2023-04-03T07:47:06;5.57;;;3.83;;
50769;SDS011;36740;48.698;11.472;2023-04-03T07:49:52;9.82;;;4.78;;
50769;SDS011;36740;48.698;11.472;2023-04-03T07:52:37;6.32;;;3.13;;
50769;SDS011;36740;48.698;11.472;2023-04-03T07:55:23;8.45;;;4.22;;
50769;SDS011;36740;48.698;11.472;2023-04-03T07:58:09;6.53;;;4.45;;
50769;SDS011;36740;48.698;11.472;2023-04-03T08:00:56;4.28;;;2.72;;
50769;SDS011;36740;48.698;11.472;2023-04-03T08:03:41;7.63;;;3.38;;
50769;SDS011;36740;48.698;11.472;2023-04-03T08:06:27;3.85;;;2.97;;
50769;SDS011;36740;48.698;11.472;2023-04-03T08:09:15;4.68;;;3.28;;
50769;SDS011;36740;48.698;11.472;2023-04-03T08:12:00;6.20;;;3.00;;
50769;SDS011;36740;48.698;11.472;2023-04-03T08:14:46;7.57;;;3.60;;
50769;SDS011;36740;48.698;11.472;2023-04-03T08:17:32;5.05;;;3.75;;
50769;SDS011;36740;48.698;11.472;2023-04-03T08:20:17;4.47;;;2.90;;
50769;SDS011;36740;48.698;11.472;2023-04-03T08:23:03;5.30;;;3.28;;
50769;SDS011;36740;48.698;11.472;2023-04-03T08:25:48;24.48;;;3.60;;
50769;SDS011;36740;48.698;11.472;2023-04-03T08:28:34;4.47;;;2.85;;
50769;SDS011;36740;48.698;11.472;2023-04-03T08:31:20;6.65;;;4.75;;
50769;SDS011;36740;48.698;11.472;2023-04-03T08:34:05;5.63;;;4.07;;
50769;SDS011;36740;48.698;11.472;2023-04-03T08:36:51;3.88;;;2.92;;
50769;SDS011;36740;48.698;11.472;2023-04-03T08:39:37;8.13;;;3.63;;
50769;SDS011;36740;48.698;11.472;2023-04-03T08:45:20;6.60;;;4.22;;
50769;SDS011;36740;48.698;11.472;2023-04-03T08:48:15;5.63;;;4.07;;
50769;SDS011;36740;48.698;11.472;2023-04-03T08:51:02;4.85;;;3.53;;
50769;SDS011;36740;48.698;11.472;2023-04-03T08:54:01;6.35;;;5.20;;
50769;SDS011;36740;48.698;11.472;2023-04-03T08:56:48;3.83;;;2.53;;
50769;SDS011;36740;48.698;11.472;2023-04-03T08:59:34;6.35;;;3.90;;
50769;SDS011;36740;48.698;11.472;2023-04-03T09:02:25;5.10;;;3.85;;
50769;SDS011;36740;48.698;11.472;2023-04-03T09:05:13;8.32;;;3.95;;
50769;SDS011;36740;48.698;11.472;2023-04-03T09:08:01;5.88;;;3.88;;
50769;SDS011;36740;48.698;11.472;2023-04-03T09:10:49;4.93;;;3.15;;
50769;SDS011;36740;48.698;11.472;2023-04-03T09:13:52;5.47;;;3.85;;
50769;SDS011;36740;48.698;11.472;2023-04-03T09:16:56;5.18;;;3.20;;
50769;SDS011;36740;48.698;11.472;2023-04-03T09:19:54;7.93;;;4.65;;
50769;SDS011;36740;48.698;11.472;2023-04-03T09:22:43;3.13;;;2.60;;
50769;SDS011;36740;48.698;11.472;2023-04-03T09:25:31;6.40;;;3.67;;
50769;SDS011;36740;48.698;11.472;2023-04-03T09:28:18;3.88;;;2.55;;
50769;SDS011;36740;48.698;11.472;2023-04-03T09:31:14;6.70;;;3.20;;
50769;SDS011;36740;48.698;11.472;2023-04-03T09:34:02;4.50;;;2.97;;
50769;SDS011;36740;48.698;11.472;2023-04-03T09:36:49;2.60;;;2.08;;
50769;SDS011;36740;48.698;11.472;2023-04-03T09:39:52;5.25;;;3.75;;
50769;SDS011;36740;48.698;11.472;2023-04-03T09:42:41;5.43;;;3.13;;
50769;SDS011;36740;48.698;11.472;2023-04-03T09:45:31;5.55;;;2.85;;
50769;SDS011;36740;48.698;11.472;2023-04-03T09:48:18;2.27;;;2.03;;
50769;SDS011;36740;48.698;11.472;2023-04-03T09:51:08;4.82;;;3.33;;
50769;SDS011;36740;48.698;11.472;2023-04-03T09:54:00;4.88;;;3.40;;
50769;SDS011;36740;48.698;11.472;2023-04-03T09:56:49;4.07;;;1.88;;
50769;SDS011;36740;48.698;11.472;2023-04-03T09:59:36;12.20;;;3.75;;
50769;SDS011;36740;48.698;11.472;2023-04-03T10:08:40;4.10;;;2.05;;
50769;SDS011;36740;48.698;11.472;2023-04-03T10:11:26;4.20;;;3.03;;
50769;SDS011;36740;48.698;11.472;2023-04-03T10:14:16;2.78;;;2.55;;
50769;SDS011;36740;48.698;11.472;2023-04-03T10:17:18;6.40;;;2.38;;
50769;SDS011;36740;48.698;11.472;2023-04-03T10:23:02;5.35;;;2.40;;
50769;SDS011;36740;48.698;11.472;2023-04-03T10:28:37;5.57;;;2.38;;
50769;SDS011;36740;48.698;11.472;2023-04-03T10:31:25;2.72;;;1.88;;
50769;SDS011;36740;48.698;11.472;2023-04-03T10:37:13;5.32;;;1.83;;
50769;SDS011;36740;48.698;11.472;2023-04-03T10:40:15;3.50;;;2.67;;
50769;SDS011;36740;48.698;11.472;2023-04-03T10:48:43;2.53;;;2.33;;
50769;SDS011;36740;48.698;11.472;2023-04-03T10:54:25;3.75;;;2.65;;
50769;SDS011;36740;48.698;11.472;2023-04-03T10:57:11;3.13;;;1.83;;
50769;SDS011;36740;48.698;11.472;2023-04-03T11:00:04;1.80;;;1.70;;
50769;SDS011;36740;48.698;11.472;2023-04-03T11:03:01;3.33;;;2.22;;
50769;SDS011;36740;48.698;11.472;2023-04-03T11:05:49;2.60;;;1.73;;
50769;SDS011;36740;48.698;11.472;2023-04-03T11:08:38;6.45;;;2.60;;
50769;SDS011;36740;48.698;11.472;2023-04-03T11:11:36;3.00;;;2.15;;
50769;SDS011;36740;48.698;11.472;2023-04-03T11:14:30;4.93;;;3.47;;
50769;SDS011;36740;48.698;11.472;2023-04-03T11:22:57;2.92;;;2.00;;
50769;SDS011;36740;48.698;11.472;2023-04-03T11:25:44;2.63;;;1.85;;
50769;SDS011;36740;48.698;11.472;2023-04-03T11:28:33;2.88;;;2.08;;
50769;SDS011;36740;48.698;11.472;2023-04-03T11:31:33;3.50;;;1.92;;
50769;SDS011;36740;48.698;11.472;2023-04-03T11:45:53;2.42;;;1.23;;
50769;SDS011;36740;48.698;11.472;2023-04-03T12:09:54;8.23;;;1.75;;
50769;SDS011;36740;48.698;11.472;2023-04-03T12:12:38;4.03;;;2.38;;
50769;SDS011;36740;48.698;11.472;2023-04-03T12:15:26;3.38;;;2.15;;
50769;SDS011;36740;48.698;11.472;2023-04-03T12:27:20;2.92;;;2.08;;
50769;SDS011;36740;48.698;11.472;2023-04-03T12:30:12;10.38;;;2.13;;
50769;SDS011;36740;48.698;11.472;2023-04-03T12:33:13;4.22;;;2.10;;
50769;SDS011;36740;48.698;11.472;2023-04-03T12:44:46;2.63;;;1.85;;
50769;SDS011;36740;48.698;11.472;2023-04-03T12:47:36;3.78;;;2.30;;
50769;SDS011;36740;48.698;11.472;2023-04-03T12:50:24;3.30;;;1.83;;
50769;SDS011;36740;48.698;11.472;2023-04-03T12:53:19;2.38;;;1.98;;
50769;SDS011;36740;48.698;11.472;2023-04-03T12:59:23;3.58;;;1.30;;
50769;SDS011;36740;48.698;11.472;2023-04-03T13:02:43;4.22;;;1.45;;
50769;SDS011;36740;48.698;11.472;2023-04-03T13:05:21;1.95;;;1.60;;
50769;SDS011;36740;48.698;11.472;2023-04-03T13:08:09;3.30;;;1.52;;
50769;SDS011;36740;48.698;11.472;2023-04-03T13:13:53;2.28;;;1.80;;
50769;SDS011;36740;48.698;11.472;2023-04-03T13:16:39;2.95;;;1.60;;
50769;SDS011;36740;48.698;11.472;2023-04-03T13:19:27;1.27;;;1.17;;
50769;SDS011;36740;48.698;11.472;2023-04-03T13:25:17;1.45;;;1.35;;
50769;SDS011;36740;48.698;11.472;2023-04-03T13:28:05;2.00;;;1.83;;
50769;SDS011;36740;48.698;11.472;2023-04-03T13:31:34;3.05;;;2.00;;
50769;SDS011;36740;48.698;11.472;2023-04-03T13:34:12;5.82;;;2.33;;
50769;SDS011;36740;48.698;11.472;2023-04-03T13:36:59;2.47;;;1.70;;
50769;SDS011;36740;48.698;11.472;2023-04-03T13:39:45;2.38;;;1.58;;
50769;SDS011;36740;48.698;11.472;2023-04-03T13:42:31;2.47;;;2.25;;
50769;SDS011;36740;48.698;11.472;2023-04-03T13:45:24;1.20;;;1.10;;
50769;SDS011;36740;48.698;11.472;2023-04-03T13:48:18;1.20;;;1.20;;
50769;SDS011;36740;48.698;11.472;2023-04-03T13:51:05;2.15;;;1.52;;
50769;SDS011;36740;48.698;11.472;2023-04-03T13:53:56;3.28;;;1.48;;
50769;SDS011;36740;48.698;11.472;2023-04-03T13:56:42;3.95;;;2.47;;
50769;SDS011;36740;48.698;11.472;2023-04-03T14:02:18;3.22;;;1.38;;
50769;SDS011;36740;48.698;11.472;2023-04-03T14:05:04;2.20;;;1.40;;
50769;SDS011;36740;48.698;11.472;2023-04-03T14:07:53;1.50;;;1.13;;
50769;SDS011;36740;48.698;11.472;2023-04-03T14:10:39;5.35;;;2.45;;
50769;SDS011;36740;48.698;11.472;2023-04-03T14:13:25;1.90;;;1.45;;
50769;SDS011;36740;48.698;11.472;2023-04-03T14:16:21;2.53;;;1.48;;
50769;SDS011;36740;48.698;11.472;2023-04-03T14:19:27;3.20;;;1.83;;
50769;SDS011;36740;48.698;11.472;2023-04-03T14:22:15;2.38;;;1.38;;
50769;SDS011;36740;48.698;11.472;2023-04-03T14:25:01;2.28;;;2.08;;
50769;SDS011;36740;48.698;11.472;2023-04-03T14:27:48;1.27;;;1.17;;
50769;SDS011;36740;48.698;11.472;2023-04-03T14:30:34;1.50;;;1.30;;
50769;SDS011;36740;48.698;11.472;2023-04-03T14:33:20;3.28;;;1.27;;
50769;SDS011;36740;48.698;11.472;2023-04-03T14:36:14;1.27;;;1.15;;
50769;SDS011;36740;48.698;11.472;2023-04-03T14:38:59;1.20;;;1.10;;
50769;SDS011;36740;48.698;11.472;2023-04-03T14:41:46;1.90;;;1.20;;
50769;SDS011;36740;48.698;11.472;2023-04-03T14:44:31;1.98;;;1.75;;
50769;SDS011;36740;48.698;11.472;2023-04-03T14:47:21;1.83;;;1.60;;
50769;SDS011;36740;48.698;11.472;2023-04-03T14:50:07;2.23;;;1.57;;
50769;SDS011;36740;48.698;11.472;2023-04-03T14:52:54;1.77;;;1.63;;
50769;SDS011;36740;48.698;11.472;2023-04-03T14:55:40;1.40;;;1.27;;
50769;SDS011;36740;48.698;11.472;2023-04-03T14:58:26;2.40;;;1.30;;
50769;SDS011;36740;48.698;11.472;2023-04-03T15:01:12;1.92;;;1.50;;
50769;SDS011;36740;48.698;11.472;2023-04-03T15:03:59;3.60;;;1.92;;
50769;SDS011;36740;48.698;11.472;2023-04-03T15:06:46;2.00;;;1.60;;
50769;SDS011;36740;48.698;11.472;2023-04-03T15:09:34;2.03;;;1.50;;
50769;SDS011;36740;48.698;11.472;2023-04-03T15:12:21;2.92;;;2.28;;
50769;SDS011;36740;48.698;11.472;2023-04-03T15:15:06;3.55;;;2.28;;
50769;SDS011;36740;48.698;11.472;2023-04-03T15:17:53;4.47;;;2.53;;
50769;SDS011;36740;48.698;11.472;2023-04-03T15:20:39;2.58;;;1.55;;
50769;SDS011;36740;48.698;11.472;2023-04-03T15:23:25;1.67;;;1.52;;
50769;SDS011;36740;48.698;11.472;2023-04-03T15:26:11;5.00;;;2.72;;
50769;SDS011;36740;48.698;11.472;2023-04-03T15:28:57;4.15;;;2.13;;
50769;SDS011;36740;48.698;11.472;2023-04-03T15:31:43;1.20;;;1.10;;
50769;SDS011;36740;48.698;11.472;2023-04-03T15:34:28;3.22;;;2.17;;
50769;SDS011;36740;48.698;11.472;2023-04-03T15:37:14;3.47;;;1.92;;
50769;SDS011;36740;48.698;11.472;2023-04-03T15:40:00;1.92;;;1.75;;
50769;SDS011;36740;48.698;11.472;2023-04-03T15:42:45;1.70;;;1.60;;
50769;SDS011;36740;48.698;11.472;2023-04-03T15:45:33;1.52;;;1.30;;
50769;SDS011;36740;48.698;11.472;2023-04-03T15:48:20;1.70;;;1.52;;
50769;SDS011;36740;48.698;11.472;2023-04-03T15:51:05;1.90;;;1.48;;
50769;SDS011;36740;48.698;11.472;2023-04-03T15:53:52;2.00;;;1.45;;
50769;SDS011;36740;48.698;11.472;2023-04-03T15:56:37;2.00;;;1.80;;
50769;SDS011;36740;48.698;11.472;2023-04-03T15:59:23;1.20;;;1.05;;
50769;SDS011;36740;48.698;11.472;2023-04-03T16:02:08;2.50;;;2.13;;
50769;SDS011;36740;48.698;11.472;2023-04-03T16:04:55;2.78;;;1.92;;
50769;SDS011;36740;48.698;11.472;2023-04-03T16:07:41;4.72;;;2.22;;
50769;SDS011;36740;48.698;11.472;2023-04-03T16:10:27;1.73;;;1.20;;
50769;SDS011;36740;48.698;11.472;2023-04-03T16:13:13;2.42;;;1.40;;
50769;SDS011;36740;48.698;11.472;2023-04-03T16:15:59;4.55;;;1.83;;
50769;SDS011;36740;48.698;11.472;2023-04-03T16:18:45;4.97;;;2.22;;
50769;SDS011;36740;48.698;11.472;2023-04-03T16:21:32;2.72;;;1.90;;
50769;SDS011;36740;48.698;11.472;2023-04-03T16:24:18;1.73;;;1.45;;
50769;SDS011;36740;48.698;11.472;2023-04-03T16:27:04;1.77;;;1.58;;
50769;SDS011;36740;48.698;11.472;2023-04-03T16:29:49;1.83;;;1.55;;
50769;SDS011;36740;48.698;11.472;2023-04-03T16:32:35;3.40;;;1.92;;
50769;SDS011;36740;48.698;11.472;2023-04-03T16:35:21;2.47;;;2.20;;
50769;SDS011;36740;48.698;11.472;2023-04-03T16:38:07;5.93;;;2.28;;
50769;SDS011;36740;48.698;11.472;2023-04-03T16:40:53;2.97;;;1.63;;
50769;SDS011;36740;48.698;11.472;2023-04-03T16:43:42;1.83;;;1.67;;
50769;SDS011;36740;48.698;11.472;2023-04-03T16:46:27;2.15;;;1.88;;
50769;SDS011;36740;48.698;11.472;2023-04-03T16:49:13;2.90;;;1.25;;
50769;SDS011;36740;48.698;11.472;2023-04-03T16:51:59;1.38;;;1.27;;
50769;SDS011;36740;48.698;11.472;2023-04-03T16:54:46;3.20;;;2.35;;
50769;SDS011;36740;48.698;11.472;2023-04-03T16:57:31;3.38;;;1.65;;
50769;SDS011;36740;48.698;11.472;2023-04-03T17:00:17;2.60;;;1.33;;
50769;SDS011;36740;48.698;11.472;2023-04-03T17:03:03;4.57;;;2.08;;
50769;SDS011;36740;48.698;11.472;2023-04-03T17:05:48;3.10;;;1.52;;
50769;SDS011;36740;48.698;11.472;2023-04-03T17:08:34;3.97;;;2.00;;
50769;SDS011;36740;48.698;11.472;2023-04-03T17:11:20;2.08;;;1.75;;
50769;SDS011;36740;48.698;11.472;2023-04-03T17:14:06;2.08;;;1.70;;
50769;SDS011;36740;48.698;11.472;2023-04-03T17:16:52;2.20;;;1.20;;
50769;SDS011;36740;48.698;11.472;2023-04-03T17:19:37;4.90;;;2.88;;
50769;SDS011;36740;48.698;11.472;2023-04-03T17:22:24;1.45;;;1.35;;
50769;SDS011;36740;48.698;11.472;2023-04-03T17:25:09;4.45;;;2.20;;
50769;SDS011;36740;48.698;11.472;2023-04-03T17:27:55;3.17;;;2.33;;
50769;SDS011;36740;48.698;11.472;2023-04-03T17:30:41;2.17;;;1.98;;
50769;SDS011;36740;48.698;11.472;2023-04-03T17:33:27;3.05;;;2.17;;
50769;SDS011;36740;48.698;11.472;2023-04-03T17:36:15;2.47;;;2.03;;
50769;SDS011;36740;48.698;11.472;2023-04-03T17:39:00;4.70;;;2.03;;
50769;SDS011;36740;48.698;11.472;2023-04-03T17:41:46;1.75;;;1.65;;
50769;SDS011;36740;48.698;11.472;2023-04-03T17:44:33;4.18;;;1.98;;
50769;SDS011;36740;48.698;11.472;2023-04-03T17:47:19;2.70;;;1.90;;
50769;SDS011;36740;48.698;11.472;2023-04-03T17:50:05;1.50;;;1.40;;
50769;SDS011;36740;48.698;11.472;2023-04-03T17:52:51;2.72;;;1.73;;
50769;SDS011;36740;48.698;11.472;2023-04-03T17:55:37;2.70;;;1.45;;
50769;SDS011;36740;48.698;11.472;2023-04-03T17:58:23;2.03;;;1.80;;
50769;SDS011;36740;48.698;11.472;2023-04-03T18:01:15;2.33;;;2.13;;
50769;SDS011;36740;48.698;11.472;2023-04-03T18:04:02;1.70;;;1.60;;
50769;SDS011;36740;48.698;11.472;2023-04-03T18:06:51;3.05;;;2.20;;
50769;SDS011;36740;48.698;11.472;2023-04-03T18:09:38;2.95;;;2.30;;